sensor_id;sensor_type;location;lat;lon;timestamp;pressure;altitude;pressure_sealevel;temperature;humidity
61908;BME280;47864;52.526;19.672;2023-12-29T00:01:59;150716.00;;;6.82;100.00
61908;BME280;47864;52.526;19.672;2023-12-29T00:04:01;150811.78;;;7.20;100.00
61908;BME280;47864;52.526;19.672;2023-12-29T00:06:03;150713.47;;;6.81;100.00
61908;BME280;47864;52.526;19.672;2023-12-29T00:08:05;150651.72;;;6.56;100.00
61908;BME280;47864;52.526;19.672;2023-12-29T00:10:06;150713.47;;;6.81;100.00
61908;BME280;47864;52.526;19.672;2023-12-29T00:12:08;150717.25;;;6.82;100.00
61908;BME280;47864;52.526;19.672;2023-12-29T00:14:10;150780.28;;;7.08;100.00
61908;BME280;47864;52.526;19.672;2023-12-29T00:16:11;150751.28;;;6.96;100.00
61908;BME280;47864;52.526;19.672;2023-12-29T00:18:13;150719.78;;;6.83;100.00
61908;BME280;47864;52.526;19.672;2023-12-29T00:20:15;150763.84;;;7.01;100.00
61908;BME280;47864;52.526;19.672;2023-12-29T00:22:34;150694.56;;;6.73;100.00
61908;BME280;47864;52.526;19.672;2023-12-29T00:24:35;150753.78;;;6.97;100.00
61908;BME280;47864;52.526;19.672;2023-12-29T00:26:37;150710.94;;;6.80;100.00
61908;BME280;47864;52.526;19.672;2023-12-29T00:28:39;150655.50;;;6.58;100.00
61908;BME280;47864;52.526;19.672;2023-12-29T00:30:40;150688.25;;;6.71;100.00
61908;BME280;47864;52.526;19.672;2023-12-29T00:33:00;150683.19;;;6.69;100.00
61908;BME280;47864;52.526;19.672;2023-12-29T00:35:02;150721.00;;;6.84;100.00
61908;BME280;47864;52.526;19.672;2023-12-29T00:37:04;150721.00;;;6.84;100.00
61908;BME280;47864;52.526;19.672;2023-12-29T00:39:06;150641.59;;;6.52;100.00
61908;BME280;47864;52.526;19.672;2023-12-29T00:41:08;150761.31;;;7.00;100.00
61908;BME280;47864;52.526;19.672;2023-12-29T00:43:09;150680.66;;;6.68;100.00
61908;BME280;47864;52.526;19.672;2023-12-29T00:45:11;150645.41;;;6.54;100.00
61908;BME280;47864;52.526;19.672;2023-12-29T00:47:13;150734.88;;;6.90;100.00
61908;BME280;47864;52.526;19.672;2023-12-29T00:49:15;150718.53;;;6.83;100.00
61908;BME280;47864;52.526;19.672;2023-12-29T00:51:17;150722.25;;;6.84;100.00
61908;BME280;47864;52.526;19.672;2023-12-29T00:53:18;150693.28;;;6.73;100.00
61908;BME280;47864;52.526;19.672;2023-12-29T00:55:20;150689.50;;;6.71;100.00
61908;BME280;47864;52.526;19.672;2023-12-29T00:57:21;150671.88;;;6.64;100.00
61908;BME280;47864;52.526;19.672;2023-12-29T00:59:23;150607.59;;;6.38;100.00
61908;BME280;47864;52.526;19.672;2023-12-29T01:01:25;150733.63;;;6.89;100.00
61908;BME280;47864;52.526;19.672;2023-12-29T01:03:26;150637.88;;;6.51;100.00
61908;BME280;47864;52.526;19.672;2023-12-29T01:05:28;150630.28;;;6.47;100.00
61908;BME280;47864;52.526;19.672;2023-12-29T01:07:30;150572.34;;;6.24;100.00
61908;BME280;47864;52.526;19.672;2023-12-29T01:09:31;150519.41;;;6.03;100.00
61908;BME280;47864;52.526;19.672;2023-12-29T01:11:33;150554.72;;;6.17;100.00
61908;BME280;47864;52.526;19.672;2023-12-29T01:13:34;150615.19;;;6.41;100.00
61908;BME280;47864;52.526;19.672;2023-12-29T01:15:36;150592.50;;;6.32;100.00
61908;BME280;47864;52.526;19.672;2023-12-29T01:17:37;150603.81;;;6.37;100.00
61908;BME280;47864;52.526;19.672;2023-12-29T01:19:39;150535.75;;;6.09;100.00
61908;BME280;47864;52.526;19.672;2023-12-29T01:21:41;150535.75;;;6.09;100.00
61908;BME280;47864;52.526;19.672;2023-12-29T01:23:42;150626.50;;;6.46;100.00
61908;BME280;47864;52.526;19.672;2023-12-29T01:25:44;150513.13;;;6.00;100.00
61908;BME280;47864;52.526;19.672;2023-12-29T01:27:45;150505.56;;;5.97;100.00
61908;BME280;47864;52.526;19.672;2023-12-29T01:29:47;150388.41;;;5.50;100.00
61908;BME280;47864;52.526;19.672;2023-12-29T01:31:48;150442.53;;;5.72;100.00
61908;BME280;47864;52.526;19.672;2023-12-29T01:33:50;150338.03;;;5.30;100.00
61908;BME280;47864;52.526;19.672;2023-12-29T01:35:52;150312.84;;;5.20;100.00
61908;BME280;47864;52.526;19.672;2023-12-29T01:37:53;150355.66;;;5.37;100.00
61908;BME280;47864;52.526;19.672;2023-12-29T01:39:55;150351.88;;;5.35;100.00
61908;BME280;47864;52.526;19.672;2023-12-29T01:41:56;150246.16;;;4.93;100.00
61908;BME280;47864;52.526;19.672;2023-12-29T01:46:02;150350.66;;;5.35;100.00
61908;BME280;47864;52.526;19.672;2023-12-29T01:48:04;150252.44;;;4.95;100.00
61908;BME280;47864;52.526;19.672;2023-12-29T01:50:07;150243.66;;;4.92;100.00
61908;BME280;47864;52.526;19.672;2023-12-29T01:52:08;150281.41;;;5.07;100.00
61908;BME280;47864;52.526;19.672;2023-12-29T01:54:12;150261.25;;;4.99;100.00
61908;BME280;47864;52.526;19.672;2023-12-29T01:56:14;150291.44;;;5.11;100.00
61908;BME280;47864;52.526;19.672;2023-12-29T01:58:16;150278.88;;;5.06;100.00
61908;BME280;47864;52.526;19.672;2023-12-29T02:00:18;150329.25;;;5.26;100.00
61908;BME280;47864;52.526;19.672;2023-12-29T02:02:19;150338.03;;;5.30;100.00
61908;BME280;47864;52.526;19.672;2023-12-29T02:04:23;150326.72;;;5.25;100.00
61908;BME280;47864;52.526;19.672;2023-12-29T02:06:26;150346.88;;;5.33;100.00
61908;BME280;47864;52.526;19.672;2023-12-29T02:08:28;150332.97;;;5.28;100.00
61908;BME280;47864;52.526;19.672;2023-12-29T02:10:30;150327.97;;;5.26;100.00
61908;BME280;47864;52.526;19.672;2023-12-29T02:12:31;150346.88;;;5.33;100.00
61908;BME280;47864;52.526;19.672;2023-12-29T02:14:34;150302.78;;;5.16;100.00
61908;BME280;47864;52.526;19.672;2023-12-29T02:18:45;150199.59;;;4.74;100.00
61908;BME280;47864;52.526;19.672;2023-12-29T02:20:48;150227.31;;;4.85;100.00
61908;BME280;47864;52.526;19.672;2023-12-29T02:22:50;150292.72;;;5.12;100.00
61908;BME280;47864;52.526;19.672;2023-12-29T02:24:51;150326.72;;;5.25;100.00
61908;BME280;47864;52.526;19.672;2023-12-29T02:27:14;150320.41;;;5.23;100.00
61908;BME280;47864;52.526;19.672;2023-12-29T02:29:19;150288.97;;;5.10;100.00
61908;BME280;47864;52.526;19.672;2023-12-29T02:31:23;150285.19;;;5.09;100.00
61908;BME280;47864;52.526;19.672;2023-12-29T02:33:26;150265.03;;;5.01;100.00
61908;BME280;47864;52.526;19.672;2023-12-29T02:35:32;150253.69;;;4.96;100.00
61908;BME280;47864;52.526;19.672;2023-12-29T02:37:36;150221.00;;;4.83;100.00
61908;BME280;47864;52.526;19.672;2023-12-29T02:39:37;150254.94;;;4.96;100.00
61908;BME280;47864;52.526;19.672;2023-12-29T02:41:39;150266.31;;;5.01;100.00
61908;BME280;47864;52.526;19.672;2023-12-29T02:43:41;150209.63;;;4.78;100.00
61908;BME280;47864;52.526;19.672;2023-12-29T02:45:42;150130.38;;;4.46;100.00
61908;BME280;47864;52.526;19.672;2023-12-29T02:47:44;150195.81;;;4.73;100.00
61908;BME280;47864;52.526;19.672;2023-12-29T02:49:46;150176.94;;;4.65;100.00
61908;BME280;47864;52.526;19.672;2023-12-29T02:51:48;150164.38;;;4.60;100.00
61908;BME280;47864;52.526;19.672;2023-12-29T02:53:49;150110.25;;;4.38;100.00
61908;BME280;47864;52.526;19.672;2023-12-29T02:55:51;150052.41;;;4.15;100.00
61908;BME280;47864;52.526;19.672;2023-12-29T02:57:52;149998.34;;;3.93;100.00
61908;BME280;47864;52.526;19.672;2023-12-29T02:59:54;150121.59;;;4.43;100.00
61908;BME280;47864;52.526;19.672;2023-12-29T03:01:55;150171.91;;;4.63;100.00
61908;BME280;47864;52.526;19.672;2023-12-29T03:03:57;150149.25;;;4.54;100.00
61908;BME280;47864;52.526;19.672;2023-12-29T03:05:59;150219.72;;;4.82;100.00
61908;BME280;47864;52.526;19.672;2023-12-29T03:08:00;150179.47;;;4.66;100.00
61908;BME280;47864;52.526;19.672;2023-12-29T03:10:03;150134.16;;;4.48;100.00
61908;BME280;47864;52.526;19.672;2023-12-29T03:12:05;150236.09;;;4.89;100.00
61908;BME280;47864;52.526;19.672;2023-12-29T03:14:07;150244.91;;;4.92;100.00
61908;BME280;47864;52.526;19.672;2023-12-29T03:16:08;150331.72;;;5.27;100.00
61908;BME280;47864;52.526;19.672;2023-12-29T03:18:10;150299.00;;;5.14;100.00
61908;BME280;47864;52.526;19.672;2023-12-29T03:20:12;150344.34;;;5.32;100.00
61908;BME280;47864;52.526;19.672;2023-12-29T03:22:13;150356.91;;;5.38;100.00
61908;BME280;47864;52.526;19.672;2023-12-29T03:24:15;150467.75;;;5.82;100.00
61908;BME280;47864;52.526;19.672;2023-12-29T03:26:17;150377.06;;;5.46;100.00
61908;BME280;47864;52.526;19.672;2023-12-29T03:28:18;150461.44;;;5.80;100.00
61908;BME280;47864;52.526;19.672;2023-12-29T03:30:20;150484.16;;;5.89;100.00
61908;BME280;47864;52.526;19.672;2023-12-29T03:32:22;150485.41;;;5.89;100.00
61908;BME280;47864;52.526;19.672;2023-12-29T03:34:23;150516.88;;;6.02;100.00
61908;BME280;47864;52.526;19.672;2023-12-29T03:36:25;150572.34;;;6.24;100.00
61908;BME280;47864;52.526;19.672;2023-12-29T03:38:26;150503.03;;;5.96;100.00
61908;BME280;47864;52.526;19.672;2023-12-29T03:40:28;150476.53;;;5.86;100.00
61908;BME280;47864;52.526;19.672;2023-12-29T03:42:29;150595.03;;;6.33;100.00
61908;BME280;47864;52.526;19.672;2023-12-29T03:44:31;150617.66;;;6.42;100.00
61908;BME280;47864;52.526;19.672;2023-12-29T03:46:32;150553.44;;;6.17;100.00
61908;BME280;47864;52.526;19.672;2023-12-29T03:48:34;150597.50;;;6.34;100.00
61908;BME280;47864;52.526;19.672;2023-12-29T03:50:36;150592.50;;;6.32;100.00
61908;BME280;47864;52.526;19.672;2023-12-29T03:52:37;150552.19;;;6.16;100.00
61908;BME280;47864;52.526;19.672;2023-12-29T03:54:39;150635.34;;;6.49;100.00
61908;BME280;47864;52.526;19.672;2023-12-29T03:56:40;150641.59;;;6.52;100.00
61908;BME280;47864;52.526;19.672;2023-12-29T03:58:46;150605.06;;;6.37;100.00
61908;BME280;47864;52.526;19.672;2023-12-29T04:00:47;150526.97;;;6.06;100.00
61908;BME280;47864;52.526;19.672;2023-12-29T04:02:49;150523.19;;;6.04;100.00
61908;BME280;47864;52.526;19.672;2023-12-29T04:04:50;150668.09;;;6.63;100.00
61908;BME280;47864;52.526;19.672;2023-12-29T04:06:52;150485.41;;;5.89;100.00
61908;BME280;47864;52.526;19.672;2023-12-29T04:08:54;150611.38;;;6.40;100.00
61908;BME280;47864;52.526;19.672;2023-12-29T04:10:55;150566.03;;;6.22;100.00
61908;BME280;47864;52.526;19.672;2023-12-29T04:12:57;150611.38;;;6.40;100.00
61908;BME280;47864;52.526;19.672;2023-12-29T04:14:58;150641.59;;;6.52;100.00
61908;BME280;47864;52.526;19.672;2023-12-29T04:17:00;150650.44;;;6.56;100.00
61908;BME280;47864;52.526;19.672;2023-12-29T04:19:02;150675.66;;;6.66;100.00
61908;BME280;47864;52.526;19.672;2023-12-29T04:21:03;150567.28;;;6.22;100.00
61908;BME280;47864;52.526;19.672;2023-12-29T04:23:06;150631.56;;;6.48;100.00
61908;BME280;47864;52.526;19.672;2023-12-29T04:25:08;150654.22;;;6.57;100.00
61908;BME280;47864;52.526;19.672;2023-12-29T04:27:10;150634.06;;;6.49;100.00
61908;BME280;47864;52.526;19.672;2023-12-29T04:29:11;150641.59;;;6.52;100.00
61908;BME280;47864;52.526;19.672;2023-12-29T04:31:13;150652.97;;;6.57;100.00
61908;BME280;47864;52.526;19.672;2023-12-29T04:33:14;150663.03;;;6.61;100.00
61908;BME280;47864;52.526;19.672;2023-12-29T04:35:16;150668.09;;;6.63;100.00
61908;BME280;47864;52.526;19.672;2023-12-29T04:37:18;150674.41;;;6.65;100.00
61908;BME280;47864;52.526;19.672;2023-12-29T04:39:19;150724.78;;;6.85;100.00
61908;BME280;47864;52.526;19.672;2023-12-29T04:41:21;150690.78;;;6.72;100.00
61908;BME280;47864;52.526;19.672;2023-12-29T04:43:22;150617.66;;;6.42;100.00
61908;BME280;47864;52.526;19.672;2023-12-29T04:45:24;150684.47;;;6.69;100.00
61908;BME280;47864;52.526;19.672;2023-12-29T04:47:25;150660.50;;;6.60;100.00
61908;BME280;47864;52.526;19.672;2023-12-29T04:49:27;150752.53;;;6.97;100.00
61908;BME280;47864;52.526;19.672;2023-12-29T04:51:29;150684.47;;;6.69;100.00
61908;BME280;47864;52.526;19.672;2023-12-29T04:53:31;150665.56;;;6.62;100.00
61908;BME280;47864;52.526;19.672;2023-12-29T04:55:32;150668.09;;;6.63;100.00
61908;BME280;47864;52.526;19.672;2023-12-29T04:57:34;150673.13;;;6.65;100.00
61908;BME280;47864;52.526;19.672;2023-12-29T04:59:35;150640.34;;;6.52;100.00
61908;BME280;47864;52.526;19.672;2023-12-29T05:01:37;150675.66;;;6.66;100.00
61908;BME280;47864;52.526;19.672;2023-12-29T05:03:39;150704.63;;;6.77;100.00
61908;BME280;47864;52.526;19.672;2023-12-29T05:05:40;150709.66;;;6.79;100.00
61908;BME280;47864;52.526;19.672;2023-12-29T05:07:42;150674.41;;;6.65;100.00
61908;BME280;47864;52.526;19.672;2023-12-29T05:09:43;150727.31;;;6.86;100.00
61908;BME280;47864;52.526;19.672;2023-12-29T05:11:45;150744.94;;;6.94;100.00
61908;BME280;47864;52.526;19.672;2023-12-29T05:13:47;150738.69;;;6.91;100.00
61908;BME280;47864;52.526;19.672;2023-12-29T05:15:48;150718.53;;;6.83;100.00
61908;BME280;47864;52.526;19.672;2023-12-29T05:17:50;150717.25;;;6.82;100.00
61908;BME280;47864;52.526;19.672;2023-12-29T05:19:51;150780.28;;;7.08;100.00
61908;BME280;47864;52.526;19.672;2023-12-29T05:21:55;150799.19;;;7.15;100.00
61908;BME280;47864;52.526;19.672;2023-12-29T05:23:56;150776.50;;;7.06;100.00
61908;BME280;47864;52.526;19.672;2023-12-29T05:25:58;150722.25;;;6.84;100.00
61908;BME280;47864;52.526;19.672;2023-12-29T05:27:59;150823.09;;;7.25;100.00
61908;BME280;47864;52.526;19.672;2023-12-29T05:30:02;150820.63;;;7.24;100.00
61908;BME280;47864;52.526;19.672;2023-12-29T05:32:05;150797.94;;;7.15;100.00
61908;BME280;47864;52.526;19.672;2023-12-29T05:34:07;150757.59;;;6.99;100.00
61908;BME280;47864;52.526;19.672;2023-12-29T05:36:09;150744.94;;;6.94;100.00
61908;BME280;47864;52.526;19.672;2023-12-29T05:38:11;150748.75;;;6.95;100.00
61908;BME280;47864;52.526;19.672;2023-12-29T05:40:13;150718.53;;;6.83;100.00
61908;BME280;47864;52.526;19.672;2023-12-29T05:42:14;150692.03;;;6.72;100.00
61908;BME280;47864;52.526;19.672;2023-12-29T05:44:16;150775.22;;;7.06;100.00
61908;BME280;47864;52.526;19.672;2023-12-29T05:46:17;150757.59;;;6.99;100.00
61908;BME280;47864;52.526;19.672;2023-12-29T05:48:19;150741.16;;;6.92;100.00
61908;BME280;47864;52.526;19.672;2023-12-29T05:50:21;150790.34;;;7.12;100.00
61908;BME280;47864;52.526;19.672;2023-12-29T05:52:22;150755.06;;;6.98;100.00
61908;BME280;47864;52.526;19.672;2023-12-29T05:54:24;150763.84;;;7.01;100.00
61908;BME280;47864;52.526;19.672;2023-12-29T05:56:25;150786.56;;;7.10;100.00
61908;BME280;47864;52.526;19.672;2023-12-29T05:58:27;150843.28;;;7.33;100.00
61908;BME280;47864;52.526;19.672;2023-12-29T06:00:28;150726.06;;;6.86;100.00
61908;BME280;47864;52.526;19.672;2023-12-29T06:02:30;150752.53;;;6.97;100.00
61908;BME280;47864;52.526;19.672;2023-12-29T06:04:32;150728.56;;;6.87;100.00
61908;BME280;47864;52.526;19.672;2023-12-29T06:06:33;150829.41;;;7.28;100.00
61908;BME280;47864;52.526;19.672;2023-12-29T06:08:35;150780.28;;;7.08;100.00
61908;BME280;47864;52.526;19.672;2023-12-29T06:10:36;150824.38;;;7.25;100.00
61908;BME280;47864;52.526;19.672;2023-12-29T06:12:38;150806.72;;;7.18;100.00
61908;BME280;47864;52.526;19.672;2023-12-29T06:14:40;150809.25;;;7.19;100.00
61908;BME280;47864;52.526;19.672;2023-12-29T06:16:41;150737.41;;;6.91;100.00
61908;BME280;47864;52.526;19.672;2023-12-29T06:18:43;150808.00;;;7.19;100.00
61908;BME280;47864;52.526;19.672;2023-12-29T06:20:45;150844.53;;;7.34;100.00
61908;BME280;47864;52.526;19.672;2023-12-29T06:22:46;150772.69;;;7.05;100.00
61908;BME280;47864;52.526;19.672;2023-12-29T06:24:48;150723.53;;;6.85;100.00
61908;BME280;47864;52.526;19.672;2023-12-29T06:26:49;150834.47;;;7.30;100.00
61908;BME280;47864;52.526;19.672;2023-12-29T06:28:51;150806.72;;;7.18;100.00
61908;BME280;47864;52.526;19.672;2023-12-29T06:30:52;150744.94;;;6.94;100.00
61908;BME280;47864;52.526;19.672;2023-12-29T06:32:54;150713.47;;;6.81;100.00
61908;BME280;47864;52.526;19.672;2023-12-29T06:34:56;150729.84;;;6.87;100.00
61908;BME280;47864;52.526;19.672;2023-12-29T06:36:57;150814.31;;;7.21;100.00
61908;BME280;47864;52.526;19.672;2023-12-29T06:38:59;150666.81;;;6.62;100.00
61908;BME280;47864;52.526;19.672;2023-12-29T06:41:04;150824.38;;;7.25;100.00
61908;BME280;47864;52.526;19.672;2023-12-29T06:43:06;150781.50;;;7.08;100.00
61908;BME280;47864;52.526;19.672;2023-12-29T06:45:09;150705.88;;;6.78;100.00
61908;BME280;47864;52.526;19.672;2023-12-29T06:47:11;150784.03;;;7.09;100.00
61908;BME280;47864;52.526;19.672;2023-12-29T06:49:12;150776.50;;;7.06;100.00
61908;BME280;47864;52.526;19.672;2023-12-29T06:51:17;150714.72;;;6.81;100.00
61908;BME280;47864;52.526;19.672;2023-12-29T06:53:19;150761.31;;;7.00;100.00
61908;BME280;47864;52.526;19.672;2023-12-29T06:55:20;150683.19;;;6.69;100.00
61908;BME280;47864;52.526;19.672;2023-12-29T06:57:22;150654.22;;;6.57;100.00
61908;BME280;47864;52.526;19.672;2023-12-29T06:59:23;150777.75;;;7.07;100.00
61908;BME280;47864;52.526;19.672;2023-12-29T07:01:25;150776.50;;;7.06;100.00
61908;BME280;47864;52.526;19.672;2023-12-29T07:03:26;150794.13;;;7.13;100.00
61908;BME280;47864;52.526;19.672;2023-12-29T07:05:28;150694.56;;;6.73;100.00
61908;BME280;47864;52.526;19.672;2023-12-29T07:07:30;150704.63;;;6.77;100.00
61908;BME280;47864;52.526;19.672;2023-12-29T07:09:31;150738.69;;;6.91;100.00
61908;BME280;47864;52.526;19.672;2023-12-29T07:11:33;150816.84;;;7.22;100.00
61908;BME280;47864;52.526;19.672;2023-12-29T07:13:36;150785.28;;;7.10;100.00
61908;BME280;47864;52.526;19.672;2023-12-29T07:15:37;150844.53;;;7.34;100.00
61908;BME280;47864;52.526;19.672;2023-12-29T07:17:39;150704.63;;;6.77;100.00
61908;BME280;47864;52.526;19.672;2023-12-29T07:19:41;150646.66;;;6.54;100.00
61908;BME280;47864;52.526;19.672;2023-12-29T07:21:42;150689.50;;;6.71;100.00
61908;BME280;47864;52.526;19.672;2023-12-29T07:23:44;150683.19;;;6.69;100.00
61908;BME280;47864;52.526;19.672;2023-12-29T07:25:47;150680.66;;;6.68;100.00
61908;BME280;47864;52.526;19.672;2023-12-29T07:27:49;150615.19;;;6.41;100.00
61908;BME280;47864;52.526;19.672;2023-12-29T07:29:50;150646.66;;;6.54;100.00
61908;BME280;47864;52.526;19.672;2023-12-29T07:31:52;150722.25;;;6.84;100.00
61908;BME280;47864;52.526;19.672;2023-12-29T07:33:55;150640.34;;;6.52;100.00
61908;BME280;47864;52.526;19.672;2023-12-29T07:35:56;150756.31;;;6.98;100.00
61908;BME280;47864;52.526;19.672;2023-12-29T07:37:59;150828.16;;;7.27;100.00
61908;BME280;47864;52.526;19.672;2023-12-29T07:40:01;150773.97;;;7.05;100.00
61908;BME280;47864;52.526;19.672;2023-12-29T07:42:03;150559.72;;;6.19;100.00
61908;BME280;47864;52.526;19.672;2023-12-29T07:44:07;150669.34;;;6.63;100.00
61908;BME280;47864;52.526;19.672;2023-12-29T07:46:08;150722.25;;;6.84;100.00
61908;BME280;47864;52.526;19.672;2023-12-29T07:48:10;150763.84;;;7.01;100.00
61908;BME280;47864;52.526;19.672;2023-12-29T07:50:12;150814.31;;;7.21;100.00
61908;BME280;47864;52.526;19.672;2023-12-29T07:52:14;150802.94;;;7.17;100.00
61908;BME280;47864;52.526;19.672;2023-12-29T07:54:16;150815.56;;;7.22;100.00
61908;BME280;47864;52.526;19.672;2023-12-29T07:56:17;150858.44;;;7.39;100.00
61908;BME280;47864;52.526;19.672;2023-12-29T07:58:19;150865.97;;;7.42;100.00
61908;BME280;47864;52.526;19.672;2023-12-29T08:00:20;150929.03;;;7.68;100.00
61908;BME280;47864;52.526;19.672;2023-12-29T08:02:22;150859.72;;;7.40;100.00
61908;BME280;47864;52.526;19.672;2023-12-29T08:04:23;150911.38;;;7.60;100.00
61908;BME280;47864;52.526;19.672;2023-12-29T08:06:25;150929.03;;;7.68;100.00
61908;BME280;47864;52.526;19.672;2023-12-29T08:08:27;150951.75;;;7.77;100.00
61908;BME280;47864;52.526;19.672;2023-12-29T08:10:29;151012.28;;;8.01;100.00
61908;BME280;47864;52.526;19.672;2023-12-29T08:12:30;150944.22;;;7.74;100.00
61908;BME280;47864;52.526;19.672;2023-12-29T08:14:31;151048.88;;;8.16;100.00
61908;BME280;47864;52.526;19.672;2023-12-29T08:16:39;150987.06;;;7.91;100.00
61908;BME280;47864;52.526;19.672;2023-12-29T08:18:41;150883.66;;;7.49;100.00
61908;BME280;47864;52.526;19.672;2023-12-29T08:20:43;150978.25;;;7.87;100.00
61908;BME280;47864;52.526;19.672;2023-12-29T08:22:44;151000.97;;;7.96;100.00
61908;BME280;47864;52.526;19.672;2023-12-29T08:24:46;151006.03;;;7.98;100.00
61908;BME280;47864;52.526;19.672;2023-12-29T08:26:47;150961.84;;;7.81;100.00
61908;BME280;47864;52.526;19.672;2023-12-29T08:28:49;151000.97;;;7.96;100.00
61908;BME280;47864;52.526;19.672;2023-12-29T08:30:51;151019.88;;;8.04;100.00
61908;BME280;47864;52.526;19.672;2023-12-29T08:32:52;151096.88;;;8.35;100.00
61908;BME280;47864;52.526;19.672;2023-12-29T08:34:54;151105.72;;;8.38;100.00
61908;BME280;47864;52.526;19.672;2023-12-29T08:36:56;151172.59;;;8.65;100.00
61908;BME280;47864;52.526;19.672;2023-12-29T08:38:57;151112.00;;;8.41;100.00
61908;BME280;47864;52.526;19.672;2023-12-29T08:40:59;151173.84;;;8.66;100.00
61908;BME280;47864;52.526;19.672;2023-12-29T08:43:01;151186.50;;;8.71;100.00
61908;BME280;47864;52.526;19.672;2023-12-29T08:45:03;151242.03;;;8.93;100.00
61908;BME280;47864;52.526;19.672;2023-12-29T08:47:07;151080.44;;;8.28;100.00
61908;BME280;47864;52.526;19.672;2023-12-29T08:49:09;151200.38;;;8.76;100.00
61908;BME280;47864;52.526;19.672;2023-12-29T08:51:10;151302.63;;;9.18;100.00
61908;BME280;47864;52.526;19.672;2023-12-29T08:53:12;151032.47;;;8.09;100.00
61908;BME280;47864;52.526;19.672;2023-12-29T08:55:14;151264.75;;;9.02;100.00
61908;BME280;47864;52.526;19.672;2023-12-29T08:57:16;151236.97;;;8.91;100.00
61908;BME280;47864;52.526;19.672;2023-12-29T08:59:17;151293.81;;;9.14;100.00
61908;BME280;47864;52.526;19.672;2023-12-29T09:01:19;151308.97;;;9.20;100.00
61908;BME280;47864;52.526;19.672;2023-12-29T09:03:20;151339.25;;;9.32;100.00
61908;BME280;47864;52.526;19.672;2023-12-29T09:05:22;151365.78;;;9.43;100.00
61908;BME280;47864;52.526;19.672;2023-12-29T09:07:24;151266.03;;;9.03;100.00
61908;BME280;47864;52.526;19.672;2023-12-29T09:09:25;151431.47;;;9.69;100.00
61908;BME280;47864;52.526;19.672;2023-12-29T09:11:27;151372.09;;;9.45;100.00
61908;BME280;47864;52.526;19.672;2023-12-29T09:13:28;151398.59;;;9.56;100.00
61908;BME280;47864;52.526;19.672;2023-12-29T09:15:30;151454.22;;;9.78;100.00
61908;BME280;47864;52.526;19.672;2023-12-29T09:17:31;151337.97;;;9.32;100.00
61908;BME280;47864;52.526;19.672;2023-12-29T09:19:33;151488.31;;;9.92;100.00
61908;BME280;47864;52.526;19.672;2023-12-29T09:21:41;151483.25;;;9.90;99.82
61908;BME280;47864;52.526;19.672;2023-12-29T09:23:43;151354.44;;;9.38;100.00
61908;BME280;47864;52.526;19.672;2023-12-29T09:25:46;151393.59;;;9.54;100.00
61908;BME280;47864;52.526;19.672;2023-12-29T09:27:48;151401.13;;;9.57;100.00
61908;BME280;47864;52.526;19.672;2023-12-29T09:29:50;151384.72;;;9.50;100.00
61908;BME280;47864;52.526;19.672;2023-12-29T09:31:51;151436.53;;;9.71;100.00
61908;BME280;47864;52.526;19.672;2023-12-29T09:33:53;151440.28;;;9.73;100.00
61908;BME280;47864;52.526;19.672;2023-12-29T09:35:55;151354.44;;;9.38;100.00
61908;BME280;47864;52.526;19.672;2023-12-29T09:37:57;151303.91;;;9.18;100.00
61908;BME280;47864;52.526;19.672;2023-12-29T09:39:59;151350.63;;;9.37;100.00
61908;BME280;47864;52.526;19.672;2023-12-29T09:42:03;151463.03;;;9.82;100.00
61908;BME280;47864;52.526;19.672;2023-12-29T09:44:13;151373.38;;;9.46;100.00
61908;BME280;47864;52.526;19.672;2023-12-29T09:46:16;151403.66;;;9.58;100.00
61908;BME280;47864;52.526;19.672;2023-12-29T09:48:19;151369.56;;;9.44;100.00
61908;BME280;47864;52.526;19.672;2023-12-29T09:50:22;151369.56;;;9.44;100.00
61908;BME280;47864;52.526;19.672;2023-12-29T09:52:23;151341.78;;;9.33;100.00
61908;BME280;47864;52.526;19.672;2023-12-29T09:54:25;151322.84;;;9.26;100.00
61908;BME280;47864;52.526;19.672;2023-12-29T09:56:27;151399.88;;;9.57;100.00
61908;BME280;47864;52.526;19.672;2023-12-29T09:58:28;151379.66;;;9.48;100.00
61908;BME280;47864;52.526;19.672;2023-12-29T10:00:30;151451.69;;;9.77;100.00
61908;BME280;47864;52.526;19.672;2023-12-29T10:02:32;151386.00;;;9.51;100.00
61908;BME280;47864;52.526;19.672;2023-12-29T10:04:34;151346.84;;;9.35;100.00
61908;BME280;47864;52.526;19.672;2023-12-29T10:06:36;151483.25;;;9.90;100.00
61908;BME280;47864;52.526;19.672;2023-12-29T10:08:45;151500.91;;;9.97;100.00
61908;BME280;47864;52.526;19.672;2023-12-29T10:10:53;151488.31;;;9.92;100.00
61908;BME280;47864;52.526;19.672;2023-12-29T10:12:59;151455.47;;;9.79;100.00
61908;BME280;47864;52.526;19.672;2023-12-29T10:15:06;151446.63;;;9.75;100.00
61908;BME280;47864;52.526;19.672;2023-12-29T10:17:19;151423.88;;;9.66;100.00
61908;BME280;47864;52.526;19.672;2023-12-29T10:19:31;151432.72;;;9.70;100.00
61908;BME280;47864;52.526;19.672;2023-12-29T10:24:16;151432.72;;;9.70;100.00
61908;BME280;47864;52.526;19.672;2023-12-29T10:26:19;151464.28;;;9.82;100.00
61908;BME280;47864;52.526;19.672;2023-12-29T10:28:21;151386.00;;;9.51;100.00
61908;BME280;47864;52.526;19.672;2023-12-29T10:30:22;151427.66;;;9.68;100.00
61908;BME280;47864;52.526;19.672;2023-12-29T10:32:35;151422.59;;;9.66;100.00
61908;BME280;47864;52.526;19.672;2023-12-29T10:34:36;151545.16;;;10.15;100.00
61908;BME280;47864;52.526;19.672;2023-12-29T10:36:48;151393.59;;;9.54;100.00
61908;BME280;47864;52.526;19.672;2023-12-29T10:39:06;151411.25;;;9.61;100.00